ULAA

Talagi/Arkhangelsk International

Airport
ICAO code
ULAA
Summary
ICAO Region
EUR
ICAO Territory
Location

Arkhangelsk,

Coordinates
64° 35' 60" N , 40° 43' 0" E
Metar
ULAA 280600Z 22002MPS 9999 -SHSNRA OVC004CB 01/01 Q1019 R26/590140 NOSIG RMK QBB140 QFE763/1017

Description

Talagi Airport is an international airport serving Arkhangelsk, Russia, located 11 km outside the city.

Climatology

Subarctic climate (Köppen climate classification Dfc) - long, usually very cold winters, and short, cool to mild summers

Runways

Designator Length Width Surface Rops
8/26 2500 44 CON Yes/Yes

Airport map

Aerial View

SKYbrary Partners:

Safety knowledge contributed by: